East Kingston, New Hampshire
Current Conditions -  °F | °C
As of 4:58 PM on Tuesday 21 Oct 2014 (Local Time) from KPSM Reporting Station
Overcast Overcast  
Wind Chill: 56°   Ceiling: 500
Heat Index: 56°   Visibility: 10mi
Dew Point: 53°   Wind: 7mph
Humidity: 92%   Direction: 360°N
Pressure: 29.95"   Gusts: NA
Location:  42.93°N, 71.02°W
Report Text: KPSM 212058Z 36006KT 10SM BKN005 OVC010 13/12 A2995 RMK AO2A RAE2027 SLP146 P0000 60003 T01310118 50004
Loading
Personal Weather Stations






























Interactive Weather Map
Tropical Storm Tracking
New forecast layout! Learn more

10-Day Weather Forecast

Advertisements
Track Severe Weather on mobile